sensor_id;sensor_type;location;lat;lon;timestamp;P1;durP1;ratioP1;P2;durP2;ratioP2
9547;SDS011;4812;51.992;8.648;2022-10-16T00:00:43;9.77;;;8.87;;
9547;SDS011;4812;51.992;8.648;2022-10-16T00:03:10;9.77;;;8.87;;
9547;SDS011;4812;51.992;8.648;2022-10-16T00:05:38;10.30;;;9.33;;
9547;SDS011;4812;51.992;8.648;2022-10-16T00:08:07;10.27;;;9.30;;
9547;SDS011;4812;51.992;8.648;2022-10-16T00:10:35;10.33;;;9.43;;
9547;SDS011;4812;51.992;8.648;2022-10-16T00:13:03;9.90;;;9.10;;
9547;SDS011;4812;51.992;8.648;2022-10-16T00:15:32;9.90;;;9.00;;
9547;SDS011;4812;51.992;8.648;2022-10-16T00:18:03;10.37;;;9.53;;
9547;SDS011;4812;51.992;8.648;2022-10-16T00:20:33;10.53;;;9.53;;
9547;SDS011;4812;51.992;8.648;2022-10-16T00:23:03;11.73;;;10.07;;
9547;SDS011;4812;51.992;8.648;2022-10-16T00:25:31;10.60;;;9.70;;
9547;SDS011;4812;51.992;8.648;2022-10-16T00:27:59;9.80;;;9.00;;
9547;SDS011;4812;51.992;8.648;2022-10-16T00:30:27;10.20;;;9.27;;
9547;SDS011;4812;51.992;8.648;2022-10-16T00:32:55;10.17;;;9.40;;
9547;SDS011;4812;51.992;8.648;2022-10-16T00:35:24;10.40;;;9.50;;
9547;SDS011;4812;51.992;8.648;2022-10-16T00:37:51;9.77;;;8.97;;
9547;SDS011;4812;51.992;8.648;2022-10-16T00:40:18;11.17;;;8.57;;
9547;SDS011;4812;51.992;8.648;2022-10-16T00:42:46;12.00;;;8.97;;
9547;SDS011;4812;51.992;8.648;2022-10-16T00:45:13;9.83;;;8.40;;
9547;SDS011;4812;51.992;8.648;2022-10-16T00:47:42;9.53;;;8.63;;
9547;SDS011;4812;51.992;8.648;2022-10-16T00:50:13;9.47;;;8.70;;
9547;SDS011;4812;51.992;8.648;2022-10-16T00:52:46;10.47;;;9.03;;
9547;SDS011;4812;51.992;8.648;2022-10-16T00:55:14;9.40;;;8.60;;
9547;SDS011;4812;51.992;8.648;2022-10-16T00:57:41;9.23;;;8.43;;
9547;SDS011;4812;51.992;8.648;2022-10-16T01:00:10;9.80;;;8.97;;
9547;SDS011;4812;51.992;8.648;2022-10-16T01:02:44;9.90;;;8.80;;
9547;SDS011;4812;51.992;8.648;2022-10-16T01:05:11;10.60;;;8.93;;
9547;SDS011;4812;51.992;8.648;2022-10-16T01:07:41;10.90;;;9.10;;
9547;SDS011;4812;51.992;8.648;2022-10-16T01:10:17;10.63;;;9.47;;
9547;SDS011;4812;51.992;8.648;2022-10-16T01:12:52;10.30;;;8.73;;
9547;SDS011;4812;51.992;8.648;2022-10-16T01:15:25;9.70;;;8.50;;
9547;SDS011;4812;51.992;8.648;2022-10-16T01:17:57;10.73;;;9.20;;
9547;SDS011;4812;51.992;8.648;2022-10-16T01:20:27;12.63;;;9.77;;
9547;SDS011;4812;51.992;8.648;2022-10-16T01:23:04;14.10;;;9.43;;
9547;SDS011;4812;51.992;8.648;2022-10-16T01:25:43;12.60;;;9.67;;
9547;SDS011;4812;51.992;8.648;2022-10-16T01:28:19;13.13;;;10.30;;
9547;SDS011;4812;51.992;8.648;2022-10-16T01:30:49;12.53;;;9.63;;
9547;SDS011;4812;51.992;8.648;2022-10-16T01:33:22;11.67;;;10.23;;
9547;SDS011;4812;51.992;8.648;2022-10-16T01:35:55;14.30;;;10.20;;
9547;SDS011;4812;51.992;8.648;2022-10-16T01:38:25;14.30;;;9.90;;
9547;SDS011;4812;51.992;8.648;2022-10-16T01:40:58;11.67;;;10.47;;
9547;SDS011;4812;51.992;8.648;2022-10-16T01:43:33;10.43;;;9.43;;
9547;SDS011;4812;51.992;8.648;2022-10-16T01:46:02;14.37;;;10.10;;
9547;SDS011;4812;51.992;8.648;2022-10-16T01:48:30;14.83;;;10.70;;
9547;SDS011;4812;51.992;8.648;2022-10-16T01:51:01;12.57;;;10.00;;
9547;SDS011;4812;51.992;8.648;2022-10-16T01:53:30;12.60;;;10.13;;
9547;SDS011;4812;51.992;8.648;2022-10-16T01:55:58;11.97;;;9.97;;
9547;SDS011;4812;51.992;8.648;2022-10-16T01:58:27;11.20;;;10.03;;
9547;SDS011;4812;51.992;8.648;2022-10-16T02:00:58;11.07;;;9.87;;
9547;SDS011;4812;51.992;8.648;2022-10-16T02:03:26;10.50;;;9.50;;
9547;SDS011;4812;51.992;8.648;2022-10-16T02:05:54;10.53;;;9.57;;
9547;SDS011;4812;51.992;8.648;2022-10-16T02:08:23;10.73;;;9.60;;
9547;SDS011;4812;51.992;8.648;2022-10-16T02:10:51;10.43;;;9.43;;
9547;SDS011;4812;51.992;8.648;2022-10-16T02:13:19;12.30;;;9.70;;
9547;SDS011;4812;51.992;8.648;2022-10-16T02:15:49;10.33;;;9.33;;
9547;SDS011;4812;51.992;8.648;2022-10-16T02:18:21;10.30;;;9.17;;
9547;SDS011;4812;51.992;8.648;2022-10-16T02:20:51;11.07;;;9.67;;
9547;SDS011;4812;51.992;8.648;2022-10-16T02:23:23;15.03;;;8.90;;
9547;SDS011;4812;51.992;8.648;2022-10-16T02:25:52;10.30;;;9.33;;
9547;SDS011;4812;51.992;8.648;2022-10-16T02:28:22;19.73;;;11.20;;
9547;SDS011;4812;51.992;8.648;2022-10-16T02:30:52;13.97;;;9.33;;
9547;SDS011;4812;51.992;8.648;2022-10-16T02:33:24;10.40;;;9.23;;
9547;SDS011;4812;51.992;8.648;2022-10-16T02:35:52;11.07;;;9.30;;
9547;SDS011;4812;51.992;8.648;2022-10-16T02:38:20;10.30;;;9.20;;
9547;SDS011;4812;51.992;8.648;2022-10-16T02:40:48;11.30;;;9.37;;
9547;SDS011;4812;51.992;8.648;2022-10-16T02:43:16;11.60;;;9.00;;
9547;SDS011;4812;51.992;8.648;2022-10-16T02:45:43;12.77;;;9.30;;
9547;SDS011;4812;51.992;8.648;2022-10-16T02:48:11;11.97;;;9.13;;
9547;SDS011;4812;51.992;8.648;2022-10-16T02:50:40;12.37;;;8.93;;
9547;SDS011;4812;51.992;8.648;2022-10-16T02:53:07;13.23;;;10.03;;
9547;SDS011;4812;51.992;8.648;2022-10-16T02:55:34;10.20;;;8.80;;
9547;SDS011;4812;51.992;8.648;2022-10-16T02:58:02;11.97;;;9.00;;
9547;SDS011;4812;51.992;8.648;2022-10-16T03:00:29;10.27;;;8.30;;
9547;SDS011;4812;51.992;8.648;2022-10-16T03:02:57;13.07;;;9.00;;
9547;SDS011;4812;51.992;8.648;2022-10-16T03:05:24;11.97;;;9.60;;
9547;SDS011;4812;51.992;8.648;2022-10-16T03:07:53;10.57;;;9.30;;
9547;SDS011;4812;51.992;8.648;2022-10-16T03:10:20;9.13;;;8.03;;
9547;SDS011;4812;51.992;8.648;2022-10-16T03:12:47;11.53;;;8.20;;
9547;SDS011;4812;51.992;8.648;2022-10-16T03:15:15;9.63;;;8.70;;
9547;SDS011;4812;51.992;8.648;2022-10-16T03:17:42;9.53;;;8.73;;
9547;SDS011;4812;51.992;8.648;2022-10-16T03:20:10;10.17;;;9.00;;
9547;SDS011;4812;51.992;8.648;2022-10-16T03:22:37;9.90;;;8.90;;
9547;SDS011;4812;51.992;8.648;2022-10-16T03:25:06;10.07;;;9.17;;
9547;SDS011;4812;51.992;8.648;2022-10-16T03:27:34;10.50;;;9.50;;
9547;SDS011;4812;51.992;8.648;2022-10-16T03:30:02;9.77;;;8.87;;
9547;SDS011;4812;51.992;8.648;2022-10-16T03:32:30;11.37;;;8.70;;
9547;SDS011;4812;51.992;8.648;2022-10-16T03:34:57;13.70;;;9.30;;
9547;SDS011;4812;51.992;8.648;2022-10-16T03:37:24;9.83;;;8.60;;
9547;SDS011;4812;51.992;8.648;2022-10-16T03:39:52;9.60;;;8.67;;
9547;SDS011;4812;51.992;8.648;2022-10-16T03:42:21;9.80;;;9.00;;
9547;SDS011;4812;51.992;8.648;2022-10-16T03:44:48;9.30;;;8.50;;
9547;SDS011;4812;51.992;8.648;2022-10-16T03:47:16;9.70;;;8.67;;
9547;SDS011;4812;51.992;8.648;2022-10-16T03:49:46;13.60;;;9.20;;
9547;SDS011;4812;51.992;8.648;2022-10-16T03:52:14;9.80;;;8.90;;
9547;SDS011;4812;51.992;8.648;2022-10-16T03:54:41;9.73;;;8.80;;
9547;SDS011;4812;51.992;8.648;2022-10-16T03:57:08;10.10;;;9.13;;
9547;SDS011;4812;51.992;8.648;2022-10-16T03:59:37;12.10;;;9.97;;
9547;SDS011;4812;51.992;8.648;2022-10-16T04:02:05;9.53;;;8.60;;
9547;SDS011;4812;51.992;8.648;2022-10-16T04:04:32;9.47;;;8.47;;
9547;SDS011;4812;51.992;8.648;2022-10-16T04:06:59;9.47;;;8.60;;
9547;SDS011;4812;51.992;8.648;2022-10-16T04:09:27;8.60;;;7.90;;
9547;SDS011;4812;51.992;8.648;2022-10-16T04:11:54;10.17;;;8.30;;
9547;SDS011;4812;51.992;8.648;2022-10-16T04:14:22;9.70;;;8.73;;
9547;SDS011;4812;51.992;8.648;2022-10-16T04:16:50;9.00;;;7.93;;
9547;SDS011;4812;51.992;8.648;2022-10-16T04:19:18;8.80;;;7.90;;
9547;SDS011;4812;51.992;8.648;2022-10-16T04:21:45;8.50;;;7.70;;
9547;SDS011;4812;51.992;8.648;2022-10-16T04:24:12;7.93;;;7.20;;
9547;SDS011;4812;51.992;8.648;2022-10-16T04:26:40;7.97;;;7.30;;
9547;SDS011;4812;51.992;8.648;2022-10-16T04:29:07;8.37;;;7.53;;
9547;SDS011;4812;51.992;8.648;2022-10-16T04:31:34;7.90;;;7.23;;
9547;SDS011;4812;51.992;8.648;2022-10-16T04:34:03;8.97;;;8.07;;
9547;SDS011;4812;51.992;8.648;2022-10-16T04:36:31;8.27;;;7.60;;
9547;SDS011;4812;51.992;8.648;2022-10-16T04:38:58;8.43;;;7.73;;
9547;SDS011;4812;51.992;8.648;2022-10-16T04:41:25;8.37;;;7.67;;
9547;SDS011;4812;51.992;8.648;2022-10-16T04:43:53;8.37;;;7.73;;
9547;SDS011;4812;51.992;8.648;2022-10-16T04:46:20;8.50;;;7.60;;
9547;SDS011;4812;51.992;8.648;2022-10-16T04:48:48;8.27;;;7.67;;
9547;SDS011;4812;51.992;8.648;2022-10-16T04:51:16;8.67;;;8.07;;
9547;SDS011;4812;51.992;8.648;2022-10-16T04:53:44;8.80;;;8.07;;
9547;SDS011;4812;51.992;8.648;2022-10-16T04:56:12;8.60;;;7.90;;
9547;SDS011;4812;51.992;8.648;2022-10-16T04:58:41;8.73;;;8.13;;
9547;SDS011;4812;51.992;8.648;2022-10-16T05:01:08;8.33;;;7.63;;
9547;SDS011;4812;51.992;8.648;2022-10-16T05:03:35;8.67;;;7.83;;
9547;SDS011;4812;51.992;8.648;2022-10-16T05:06:04;8.43;;;7.73;;
9547;SDS011;4812;51.992;8.648;2022-10-16T05:08:34;8.33;;;7.60;;
9547;SDS011;4812;51.992;8.648;2022-10-16T05:11:01;8.83;;;8.10;;
9547;SDS011;4812;51.992;8.648;2022-10-16T05:13:29;8.10;;;7.60;;
9547;SDS011;4812;51.992;8.648;2022-10-16T05:15:56;8.17;;;7.57;;
9547;SDS011;4812;51.992;8.648;2022-10-16T05:18:24;8.60;;;8.00;;
9547;SDS011;4812;51.992;8.648;2022-10-16T05:20:51;8.87;;;8.13;;
9547;SDS011;4812;51.992;8.648;2022-10-16T05:23:18;8.43;;;7.83;;
9547;SDS011;4812;51.992;8.648;2022-10-16T05:25:52;9.00;;;8.40;;
9547;SDS011;4812;51.992;8.648;2022-10-16T05:28:21;8.20;;;7.60;;
9547;SDS011;4812;51.992;8.648;2022-10-16T05:30:48;8.27;;;7.53;;
9547;SDS011;4812;51.992;8.648;2022-10-16T05:33:19;8.00;;;7.50;;
9547;SDS011;4812;51.992;8.648;2022-10-16T05:35:46;8.80;;;8.00;;
9547;SDS011;4812;51.992;8.648;2022-10-16T05:38:14;8.23;;;7.63;;
9547;SDS011;4812;51.992;8.648;2022-10-16T05:40:41;8.77;;;8.07;;
9547;SDS011;4812;51.992;8.648;2022-10-16T05:43:10;8.87;;;8.00;;
9547;SDS011;4812;51.992;8.648;2022-10-16T05:45:37;9.00;;;8.40;;
9547;SDS011;4812;51.992;8.648;2022-10-16T05:48:05;8.40;;;7.60;;
9547;SDS011;4812;51.992;8.648;2022-10-16T05:50:32;8.00;;;7.40;;
9547;SDS011;4812;51.992;8.648;2022-10-16T05:53:00;8.70;;;8.00;;
9547;SDS011;4812;51.992;8.648;2022-10-16T05:55:27;8.50;;;7.73;;
9547;SDS011;4812;51.992;8.648;2022-10-16T05:57:55;8.33;;;7.73;;
9547;SDS011;4812;51.992;8.648;2022-10-16T06:00:25;8.03;;;7.43;;
9547;SDS011;4812;51.992;8.648;2022-10-16T06:02:53;8.70;;;8.20;;
9547;SDS011;4812;51.992;8.648;2022-10-16T06:05:20;8.57;;;7.90;;
9547;SDS011;4812;51.992;8.648;2022-10-16T06:07:47;8.20;;;7.60;;
9547;SDS011;4812;51.992;8.648;2022-10-16T06:10:15;8.70;;;8.00;;
9547;SDS011;4812;51.992;8.648;2022-10-16T06:12:42;8.83;;;8.13;;
9547;SDS011;4812;51.992;8.648;2022-10-16T06:15:10;8.53;;;8.03;;
9547;SDS011;4812;51.992;8.648;2022-10-16T06:17:39;8.50;;;7.90;;
9547;SDS011;4812;51.992;8.648;2022-10-16T06:20:06;8.30;;;7.87;;
9547;SDS011;4812;51.992;8.648;2022-10-16T06:22:34;9.00;;;8.20;;
9547;SDS011;4812;51.992;8.648;2022-10-16T06:25:02;8.20;;;7.60;;
9547;SDS011;4812;51.992;8.648;2022-10-16T06:27:30;7.90;;;7.20;;
9547;SDS011;4812;51.992;8.648;2022-10-16T06:29:57;8.00;;;7.40;;
9547;SDS011;4812;51.992;8.648;2022-10-16T06:32:25;7.53;;;7.00;;
9547;SDS011;4812;51.992;8.648;2022-10-16T06:34:54;8.10;;;7.50;;
9547;SDS011;4812;51.992;8.648;2022-10-16T06:37:21;8.30;;;7.53;;
9547;SDS011;4812;51.992;8.648;2022-10-16T06:39:49;8.30;;;7.80;;
9547;SDS011;4812;51.992;8.648;2022-10-16T06:42:18;7.80;;;7.20;;
9547;SDS011;4812;51.992;8.648;2022-10-16T06:44:45;7.87;;;7.37;;
9547;SDS011;4812;51.992;8.648;2022-10-16T06:47:13;8.40;;;7.80;;
9547;SDS011;4812;51.992;8.648;2022-10-16T06:49:40;9.20;;;8.67;;
9547;SDS011;4812;51.992;8.648;2022-10-16T06:52:09;9.10;;;8.60;;
9547;SDS011;4812;51.992;8.648;2022-10-16T06:54:36;9.30;;;8.70;;
9547;SDS011;4812;51.992;8.648;2022-10-16T06:57:07;9.83;;;9.03;;
9547;SDS011;4812;51.992;8.648;2022-10-16T06:59:35;10.40;;;9.43;;
9547;SDS011;4812;51.992;8.648;2022-10-16T07:02:02;10.00;;;9.30;;
9547;SDS011;4812;51.992;8.648;2022-10-16T07:04:29;10.23;;;9.73;;
9547;SDS011;4812;51.992;8.648;2022-10-16T07:06:57;10.73;;;9.90;;
9547;SDS011;4812;51.992;8.648;2022-10-16T07:09:25;10.03;;;9.43;;
9547;SDS011;4812;51.992;8.648;2022-10-16T07:11:53;10.37;;;9.70;;
9547;SDS011;4812;51.992;8.648;2022-10-16T07:14:20;10.27;;;9.60;;
9547;SDS011;4812;51.992;8.648;2022-10-16T07:16:48;10.80;;;10.10;;
9547;SDS011;4812;51.992;8.648;2022-10-16T07:19:16;10.50;;;10.00;;
9547;SDS011;4812;51.992;8.648;2022-10-16T07:21:44;10.60;;;10.00;;
9547;SDS011;4812;51.992;8.648;2022-10-16T07:24:12;10.90;;;10.30;;
9547;SDS011;4812;51.992;8.648;2022-10-16T07:26:42;11.57;;;10.97;;
9547;SDS011;4812;51.992;8.648;2022-10-16T07:29:11;12.67;;;11.50;;
9547;SDS011;4812;51.992;8.648;2022-10-16T07:31:40;12.50;;;11.60;;
9547;SDS011;4812;51.992;8.648;2022-10-16T07:34:08;12.67;;;11.97;;
9547;SDS011;4812;51.992;8.648;2022-10-16T07:36:36;13.50;;;12.57;;
9547;SDS011;4812;51.992;8.648;2022-10-16T07:39:04;13.33;;;12.43;;
9547;SDS011;4812;51.992;8.648;2022-10-16T07:41:31;13.00;;;12.20;;
9547;SDS011;4812;51.992;8.648;2022-10-16T07:44:04;13.23;;;12.43;;
9547;SDS011;4812;51.992;8.648;2022-10-16T07:46:32;13.53;;;12.63;;
9547;SDS011;4812;51.992;8.648;2022-10-16T07:49:02;13.33;;;12.43;;
9547;SDS011;4812;51.992;8.648;2022-10-16T07:51:29;13.83;;;13.03;;
9547;SDS011;4812;51.992;8.648;2022-10-16T07:53:56;13.30;;;12.50;;
9547;SDS011;4812;51.992;8.648;2022-10-16T07:56:24;12.80;;;11.93;;
9547;SDS011;4812;51.992;8.648;2022-10-16T07:58:52;12.30;;;11.60;;
9547;SDS011;4812;51.992;8.648;2022-10-16T08:01:23;12.60;;;11.70;;
9547;SDS011;4812;51.992;8.648;2022-10-16T08:03:51;12.10;;;11.23;;
9547;SDS011;4812;51.992;8.648;2022-10-16T08:06:19;11.87;;;11.17;;
9547;SDS011;4812;51.992;8.648;2022-10-16T08:08:53;11.20;;;10.50;;
9547;SDS011;4812;51.992;8.648;2022-10-16T08:11:20;11.23;;;10.53;;
9547;SDS011;4812;51.992;8.648;2022-10-16T08:13:49;11.30;;;10.70;;
9547;SDS011;4812;51.992;8.648;2022-10-16T08:16:16;11.90;;;10.90;;
9547;SDS011;4812;51.992;8.648;2022-10-16T08:18:45;10.90;;;10.30;;
9547;SDS011;4812;51.992;8.648;2022-10-16T08:21:13;11.50;;;10.70;;
9547;SDS011;4812;51.992;8.648;2022-10-16T08:23:46;11.57;;;10.97;;
9547;SDS011;4812;51.992;8.648;2022-10-16T08:26:22;12.10;;;11.30;;
9547;SDS011;4812;51.992;8.648;2022-10-16T08:28:49;12.63;;;11.93;;
9547;SDS011;4812;51.992;8.648;2022-10-16T08:31:17;12.83;;;12.03;;
9547;SDS011;4812;51.992;8.648;2022-10-16T08:33:46;13.13;;;12.33;;
9547;SDS011;4812;51.992;8.648;2022-10-16T08:36:14;12.83;;;12.03;;
9547;SDS011;4812;51.992;8.648;2022-10-16T08:38:42;12.83;;;11.90;;
9547;SDS011;4812;51.992;8.648;2022-10-16T08:44:03;13.63;;;12.67;;
9547;SDS011;4812;51.992;8.648;2022-10-16T08:46:41;13.10;;;12.10;;
9547;SDS011;4812;51.992;8.648;2022-10-16T08:49:17;13.93;;;13.03;;
9547;SDS011;4812;51.992;8.648;2022-10-16T08:51:44;13.70;;;12.70;;
9547;SDS011;4812;51.992;8.648;2022-10-16T08:54:19;13.37;;;12.47;;
9547;SDS011;4812;51.992;8.648;2022-10-16T08:56:50;13.80;;;12.80;;
9547;SDS011;4812;51.992;8.648;2022-10-16T08:59:17;13.53;;;12.73;;
9547;SDS011;4812;51.992;8.648;2022-10-16T09:01:46;13.60;;;12.70;;
9547;SDS011;4812;51.992;8.648;2022-10-16T09:04:23;14.40;;;13.13;;
9547;SDS011;4812;51.992;8.648;2022-10-16T09:07:07;14.00;;;13.20;;
9547;SDS011;4812;51.992;8.648;2022-10-16T09:09:52;14.13;;;13.17;;
9547;SDS011;4812;51.992;8.648;2022-10-16T09:12:24;13.87;;;13.07;;
9547;SDS011;4812;51.992;8.648;2022-10-16T09:14:59;14.50;;;13.33;;
9547;SDS011;4812;51.992;8.648;2022-10-16T09:17:32;14.13;;;13.03;;
9547;SDS011;4812;51.992;8.648;2022-10-16T09:20:13;14.17;;;13.27;;
9547;SDS011;4812;51.992;8.648;2022-10-16T09:22:53;14.63;;;13.70;;
9547;SDS011;4812;51.992;8.648;2022-10-16T09:25:22;14.13;;;13.17;;
9547;SDS011;4812;51.992;8.648;2022-10-16T09:27:51;14.77;;;13.70;;
9547;SDS011;4812;51.992;8.648;2022-10-16T09:30:20;14.70;;;13.73;;
9547;SDS011;4812;51.992;8.648;2022-10-16T09:32:49;14.80;;;13.90;;
9547;SDS011;4812;51.992;8.648;2022-10-16T09:35:20;14.23;;;13.43;;
9547;SDS011;4812;51.992;8.648;2022-10-16T09:37:50;14.23;;;13.30;;
9547;SDS011;4812;51.992;8.648;2022-10-16T09:40:25;14.60;;;13.70;;
9547;SDS011;4812;51.992;8.648;2022-10-16T09:42:56;15.10;;;14.10;;
9547;SDS011;4812;51.992;8.648;2022-10-16T09:45:25;15.10;;;13.80;;
9547;SDS011;4812;51.992;8.648;2022-10-16T09:47:52;15.30;;;14.10;;
9547;SDS011;4812;51.992;8.648;2022-10-16T09:50:25;14.33;;;13.50;;
9547;SDS011;4812;51.992;8.648;2022-10-16T09:53:04;14.70;;;13.80;;
9547;SDS011;4812;51.992;8.648;2022-10-16T09:55:32;14.87;;;13.77;;
9547;SDS011;4812;51.992;8.648;2022-10-16T09:57:59;15.30;;;14.20;;
9547;SDS011;4812;51.992;8.648;2022-10-16T10:00:27;14.90;;;13.90;;
9547;SDS011;4812;51.992;8.648;2022-10-16T10:02:56;15.00;;;13.90;;
9547;SDS011;4812;51.992;8.648;2022-10-16T10:05:25;15.43;;;14.33;;
9547;SDS011;4812;51.992;8.648;2022-10-16T10:07:54;16.20;;;14.90;;
9547;SDS011;4812;51.992;8.648;2022-10-16T10:10:23;15.70;;;14.60;;
9547;SDS011;4812;51.992;8.648;2022-10-16T10:12:52;16.20;;;15.00;;
9547;SDS011;4812;51.992;8.648;2022-10-16T10:15:19;16.10;;;14.90;;
9547;SDS011;4812;51.992;8.648;2022-10-16T10:17:48;17.50;;;16.00;;
9547;SDS011;4812;51.992;8.648;2022-10-16T10:20:25;16.67;;;15.50;;
9547;SDS011;4812;51.992;8.648;2022-10-16T10:22:54;16.40;;;15.37;;
9547;SDS011;4812;51.992;8.648;2022-10-16T10:25:25;16.83;;;15.63;;
9547;SDS011;4812;51.992;8.648;2022-10-16T10:28:15;17.33;;;16.07;;
9547;SDS011;4812;51.992;8.648;2022-10-16T10:30:51;16.87;;;15.70;;
9547;SDS011;4812;51.992;8.648;2022-10-16T10:33:28;17.00;;;15.70;;
9547;SDS011;4812;51.992;8.648;2022-10-16T10:51:26;18.13;;;16.93;;
9547;SDS011;4812;51.992;8.648;2022-10-16T10:53:59;17.13;;;16.00;;
9547;SDS011;4812;51.992;8.648;2022-10-16T10:56:39;17.87;;;16.63;;
9547;SDS011;4812;51.992;8.648;2022-10-16T11:02:00;17.73;;;16.43;;
9547;SDS011;4812;51.992;8.648;2022-10-16T11:04:33;18.33;;;17.03;;
9547;SDS011;4812;51.992;8.648;2022-10-16T11:07:23;17.77;;;16.47;;
9547;SDS011;4812;51.992;8.648;2022-10-16T11:09:54;18.80;;;17.40;;
9547;SDS011;4812;51.992;8.648;2022-10-16T11:12:24;18.20;;;17.00;;
9547;SDS011;4812;51.992;8.648;2022-10-16T11:14:58;17.63;;;16.33;;
9547;SDS011;4812;51.992;8.648;2022-10-16T11:17:31;18.30;;;16.90;;
9547;SDS011;4812;51.992;8.648;2022-10-16T11:20:03;18.10;;;16.70;;
9547;SDS011;4812;51.992;8.648;2022-10-16T11:22:41;17.77;;;16.57;;
9547;SDS011;4812;51.992;8.648;2022-10-16T11:25:12;18.03;;;16.83;;
9547;SDS011;4812;51.992;8.648;2022-10-16T11:27:42;18.10;;;16.80;;
9547;SDS011;4812;51.992;8.648;2022-10-16T11:30:14;18.47;;;17.27;;
9547;SDS011;4812;51.992;8.648;2022-10-16T11:32:49;18.33;;;16.70;;
9547;SDS011;4812;51.992;8.648;2022-10-16T11:35:21;18.70;;;17.40;;
9547;SDS011;4812;51.992;8.648;2022-10-16T11:37:51;18.40;;;17.10;;
9547;SDS011;4812;51.992;8.648;2022-10-16T11:40:21;18.67;;;17.17;;
9547;SDS011;4812;51.992;8.648;2022-10-16T11:42:51;18.47;;;17.17;;
9547;SDS011;4812;51.992;8.648;2022-10-16T11:45:24;19.30;;;17.60;;
9547;SDS011;4812;51.992;8.648;2022-10-16T11:47:57;18.63;;;17.33;;
9547;SDS011;4812;51.992;8.648;2022-10-16T11:50:29;18.50;;;17.20;;
9547;SDS011;4812;51.992;8.648;2022-10-16T11:53:07;18.90;;;17.60;;
9547;SDS011;4812;51.992;8.648;2022-10-16T11:55:40;18.43;;;17.20;;
9547;SDS011;4812;51.992;8.648;2022-10-16T11:58:14;18.60;;;17.20;;
9547;SDS011;4812;51.992;8.648;2022-10-16T12:00:51;18.03;;;16.83;;
9547;SDS011;4812;51.992;8.648;2022-10-16T12:03:24;18.60;;;17.30;;
9547;SDS011;4812;51.992;8.648;2022-10-16T12:06:00;18.47;;;17.17;;
9547;SDS011;4812;51.992;8.648;2022-10-16T12:08:39;19.07;;;17.60;;
9547;SDS011;4812;51.992;8.648;2022-10-16T12:11:08;18.83;;;17.43;;
9547;SDS011;4812;51.992;8.648;2022-10-16T12:13:37;18.77;;;17.43;;
9547;SDS011;4812;51.992;8.648;2022-10-16T12:18:49;18.70;;;17.50;;
9547;SDS011;4812;51.992;8.648;2022-10-16T12:21:16;19.00;;;17.47;;
9547;SDS011;4812;51.992;8.648;2022-10-16T12:23:49;18.57;;;17.27;;
9547;SDS011;4812;51.992;8.648;2022-10-16T12:26:24;18.70;;;17.40;;
9547;SDS011;4812;51.992;8.648;2022-10-16T12:28:52;19.00;;;17.63;;
9547;SDS011;4812;51.992;8.648;2022-10-16T12:31:21;18.70;;;17.40;;
9547;SDS011;4812;51.992;8.648;2022-10-16T12:33:54;18.20;;;17.10;;
9547;SDS011;4812;51.992;8.648;2022-10-16T12:36:28;18.10;;;17.00;;
9547;SDS011;4812;51.992;8.648;2022-10-16T12:39:00;17.83;;;16.43;;
9547;SDS011;4812;51.992;8.648;2022-10-16T12:41:29;17.43;;;16.33;;
9547;SDS011;4812;51.992;8.648;2022-10-16T12:43:57;18.10;;;16.70;;
9547;SDS011;4812;51.992;8.648;2022-10-16T12:46:35;16.67;;;15.70;;
9547;SDS011;4812;51.992;8.648;2022-10-16T12:49:20;16.93;;;15.93;;
9547;SDS011;4812;51.992;8.648;2022-10-16T12:51:50;17.80;;;16.50;;
9547;SDS011;4812;51.992;8.648;2022-10-16T12:54:20;17.20;;;16.10;;
9547;SDS011;4812;51.992;8.648;2022-10-16T12:56:52;17.00;;;15.90;;
9547;SDS011;4812;51.992;8.648;2022-10-16T12:59:33;16.87;;;15.80;;
9547;SDS011;4812;51.992;8.648;2022-10-16T13:02:18;17.10;;;15.90;;
9547;SDS011;4812;51.992;8.648;2022-10-16T13:05:02;15.70;;;14.80;;
9547;SDS011;4812;51.992;8.648;2022-10-16T13:07:45;15.80;;;14.80;;
9547;SDS011;4812;51.992;8.648;2022-10-16T13:10:21;16.00;;;15.10;;
9547;SDS011;4812;51.992;8.648;2022-10-16T13:13:00;16.10;;;15.10;;
9547;SDS011;4812;51.992;8.648;2022-10-16T13:15:55;15.50;;;14.50;;
9547;SDS011;4812;51.992;8.648;2022-10-16T13:18:29;15.70;;;14.47;;
9547;SDS011;4812;51.992;8.648;2022-10-16T13:21:03;15.20;;;13.90;;
9547;SDS011;4812;51.992;8.648;2022-10-16T13:23:38;14.73;;;13.73;;
9547;SDS011;4812;51.992;8.648;2022-10-16T13:26:15;14.80;;;13.90;;
9547;SDS011;4812;51.992;8.648;2022-10-16T13:28:46;15.17;;;14.30;;
9547;SDS011;4812;51.992;8.648;2022-10-16T13:31:15;15.20;;;14.20;;
9547;SDS011;4812;51.992;8.648;2022-10-16T13:33:45;15.07;;;14.07;;
9547;SDS011;4812;51.992;8.648;2022-10-16T13:36:20;14.90;;;14.10;;
9547;SDS011;4812;51.992;8.648;2022-10-16T13:38:49;14.20;;;13.40;;
9547;SDS011;4812;51.992;8.648;2022-10-16T13:41:28;14.50;;;13.70;;
9547;SDS011;4812;51.992;8.648;2022-10-16T13:43:55;14.27;;;13.47;;
9547;SDS011;4812;51.992;8.648;2022-10-16T13:46:24;14.70;;;13.90;;
9547;SDS011;4812;51.992;8.648;2022-10-16T13:48:58;14.20;;;13.30;;
9547;SDS011;4812;51.992;8.648;2022-10-16T13:51:26;16.17;;;14.70;;
9547;SDS011;4812;51.992;8.648;2022-10-16T13:56:28;17.80;;;16.50;;
9547;SDS011;4812;51.992;8.648;2022-10-16T13:59:00;17.47;;;16.17;;
9547;SDS011;4812;51.992;8.648;2022-10-16T14:01:29;15.57;;;14.47;;
9547;SDS011;4812;51.992;8.648;2022-10-16T14:04:02;14.97;;;13.93;;
9547;SDS011;4812;51.992;8.648;2022-10-16T14:06:30;14.30;;;13.50;;
9547;SDS011;4812;51.992;8.648;2022-10-16T14:08:59;15.33;;;14.23;;
9547;SDS011;4812;51.992;8.648;2022-10-16T14:11:29;14.57;;;13.57;;
9547;SDS011;4812;51.992;8.648;2022-10-16T14:13:57;14.63;;;13.80;;
9547;SDS011;4812;51.992;8.648;2022-10-16T14:16:25;14.60;;;13.60;;
9547;SDS011;4812;51.992;8.648;2022-10-16T14:18:56;13.80;;;13.00;;
9547;SDS011;4812;51.992;8.648;2022-10-16T14:21:25;14.53;;;13.43;;
9547;SDS011;4812;51.992;8.648;2022-10-16T14:23:53;14.00;;;13.20;;
9547;SDS011;4812;51.992;8.648;2022-10-16T14:26:22;14.53;;;13.43;;
9547;SDS011;4812;51.992;8.648;2022-10-16T14:29:03;13.87;;;13.03;;
9547;SDS011;4812;51.992;8.648;2022-10-16T14:31:38;14.73;;;13.43;;
9547;SDS011;4812;51.992;8.648;2022-10-16T14:36:54;13.90;;;13.00;;
9547;SDS011;4812;51.992;8.648;2022-10-16T14:39:22;14.07;;;13.07;;
9547;SDS011;4812;51.992;8.648;2022-10-16T14:41:52;13.83;;;12.83;;
9547;SDS011;4812;51.992;8.648;2022-10-16T14:44:23;14.47;;;13.10;;
9547;SDS011;4812;51.992;8.648;2022-10-16T14:46:54;13.40;;;12.60;;
9547;SDS011;4812;51.992;8.648;2022-10-16T14:49:22;13.30;;;12.30;;
9547;SDS011;4812;51.992;8.648;2022-10-16T14:51:52;13.53;;;12.73;;
9547;SDS011;4812;51.992;8.648;2022-10-16T14:54:20;13.80;;;12.80;;
9547;SDS011;4812;51.992;8.648;2022-10-16T14:56:48;13.33;;;12.53;;
9547;SDS011;4812;51.992;8.648;2022-10-16T14:59:18;13.27;;;12.37;;
9547;SDS011;4812;51.992;8.648;2022-10-16T15:01:48;13.13;;;12.33;;
9547;SDS011;4812;51.992;8.648;2022-10-16T15:04:15;13.10;;;12.40;;
9547;SDS011;4812;51.992;8.648;2022-10-16T15:06:43;13.20;;;12.37;;
9547;SDS011;4812;51.992;8.648;2022-10-16T15:09:11;13.10;;;12.40;;
9547;SDS011;4812;51.992;8.648;2022-10-16T15:11:38;13.10;;;12.20;;
9547;SDS011;4812;51.992;8.648;2022-10-16T15:14:08;12.40;;;11.60;;
9547;SDS011;4812;51.992;8.648;2022-10-16T15:16:38;12.17;;;11.40;;
9547;SDS011;4812;51.992;8.648;2022-10-16T15:19:07;12.43;;;11.60;;
9547;SDS011;4812;51.992;8.648;2022-10-16T15:21:34;12.40;;;11.60;;
9547;SDS011;4812;51.992;8.648;2022-10-16T15:24:02;12.00;;;11.40;;
9547;SDS011;4812;51.992;8.648;2022-10-16T15:26:30;12.47;;;11.63;;
9547;SDS011;4812;51.992;8.648;2022-10-16T15:28:57;12.40;;;11.70;;
9547;SDS011;4812;51.992;8.648;2022-10-16T15:31:25;12.70;;;11.80;;
9547;SDS011;4812;51.992;8.648;2022-10-16T15:33:53;12.33;;;11.70;;
9547;SDS011;4812;51.992;8.648;2022-10-16T15:36:26;13.03;;;12.17;;
9547;SDS011;4812;51.992;8.648;2022-10-16T15:38:56;11.80;;;11.20;;
9547;SDS011;4812;51.992;8.648;2022-10-16T15:41:23;12.50;;;11.80;;
9547;SDS011;4812;51.992;8.648;2022-10-16T15:43:51;12.70;;;11.90;;